sensor_id;sensor_type;location;lat;lon;timestamp;P1;durP1;ratioP1;P2;durP2;ratioP2
80576;SDS011;69937;52.420;10.538;2023-12-14T00:03:12;10.43;;;9.50;;
80576;SDS011;69937;52.420;10.538;2023-12-14T00:08:12;12.45;;;9.10;;
80576;SDS011;69937;52.420;10.538;2023-12-14T00:13:13;8.63;;;7.93;;
80576;SDS011;69937;52.420;10.538;2023-12-14T00:18:13;8.85;;;8.20;;
80576;SDS011;69937;52.420;10.538;2023-12-14T00:23:14;10.88;;;10.15;;
80576;SDS011;69937;52.420;10.538;2023-12-14T00:28:15;10.48;;;9.68;;
80576;SDS011;69937;52.420;10.538;2023-12-14T00:33:15;8.65;;;7.95;;
80576;SDS011;69937;52.420;10.538;2023-12-14T00:38:15;10.55;;;9.80;;
80576;SDS011;69937;52.420;10.538;2023-12-14T00:43:16;7.45;;;6.47;;
80576;SDS011;69937;52.420;10.538;2023-12-14T00:48:17;7.57;;;6.80;;
80576;SDS011;69937;52.420;10.538;2023-12-14T00:53:17;11.38;;;9.15;;
80576;SDS011;69937;52.420;10.538;2023-12-14T00:58:18;10.15;;;9.15;;
80576;SDS011;69937;52.420;10.538;2023-12-14T01:03:18;11.25;;;10.15;;
80576;SDS011;69937;52.420;10.538;2023-12-14T01:08:19;12.05;;;10.48;;
80576;SDS011;69937;52.420;10.538;2023-12-14T01:13:19;9.82;;;8.93;;
80576;SDS011;69937;52.420;10.538;2023-12-14T01:18:20;10.93;;;9.93;;
80576;SDS011;69937;52.420;10.538;2023-12-14T01:23:20;11.02;;;10.23;;
80576;SDS011;69937;52.420;10.538;2023-12-14T01:28:21;10.57;;;9.75;;
80576;SDS011;69937;52.420;10.538;2023-12-14T01:33:21;9.85;;;9.15;;
80576;SDS011;69937;52.420;10.538;2023-12-14T01:38:22;9.60;;;8.77;;
80576;SDS011;69937;52.420;10.538;2023-12-14T01:43:22;10.93;;;10.15;;
80576;SDS011;69937;52.420;10.538;2023-12-14T01:48:23;7.00;;;5.40;;
80576;SDS011;69937;52.420;10.538;2023-12-14T01:53:23;9.65;;;8.95;;
80576;SDS011;69937;52.420;10.538;2023-12-14T01:58:24;6.43;;;5.82;;
80576;SDS011;69937;52.420;10.538;2023-12-14T02:03:26;9.57;;;8.98;;
80576;SDS011;69937;52.420;10.538;2023-12-14T02:08:27;10.02;;;9.43;;
80576;SDS011;69937;52.420;10.538;2023-12-14T02:13:29;9.35;;;8.75;;
80576;SDS011;69937;52.420;10.538;2023-12-14T02:18:29;9.48;;;8.75;;
80576;SDS011;69937;52.420;10.538;2023-12-14T02:23:30;8.80;;;8.27;;
80576;SDS011;69937;52.420;10.538;2023-12-14T02:28:30;10.75;;;10.05;;
80576;SDS011;69937;52.420;10.538;2023-12-14T02:33:31;9.52;;;8.85;;
80576;SDS011;69937;52.420;10.538;2023-12-14T02:38:31;10.13;;;9.43;;
80576;SDS011;69937;52.420;10.538;2023-12-14T02:43:32;6.53;;;5.93;;
80576;SDS011;69937;52.420;10.538;2023-12-14T02:48:33;9.98;;;9.20;;
80576;SDS011;69937;52.420;10.538;2023-12-14T02:53:34;9.48;;;8.93;;
80576;SDS011;69937;52.420;10.538;2023-12-14T02:58:34;11.10;;;10.45;;
80576;SDS011;69937;52.420;10.538;2023-12-14T03:03:37;10.10;;;9.40;;
80576;SDS011;69937;52.420;10.538;2023-12-14T03:08:39;9.95;;;9.35;;
80576;SDS011;69937;52.420;10.538;2023-12-14T03:13:40;9.60;;;8.90;;
80576;SDS011;69937;52.420;10.538;2023-12-14T03:18:40;9.85;;;9.15;;
80576;SDS011;69937;52.420;10.538;2023-12-14T03:23:41;10.00;;;9.30;;
80576;SDS011;69937;52.420;10.538;2023-12-14T03:28:41;10.48;;;9.57;;
80576;SDS011;69937;52.420;10.538;2023-12-14T03:33:42;10.13;;;9.43;;
80576;SDS011;69937;52.420;10.538;2023-12-14T03:38:43;11.00;;;10.23;;
80576;SDS011;69937;52.420;10.538;2023-12-14T03:43:43;10.40;;;9.60;;
80576;SDS011;69937;52.420;10.538;2023-12-14T03:48:44;9.77;;;9.07;;
80576;SDS011;69937;52.420;10.538;2023-12-14T03:53:44;11.10;;;10.25;;
80576;SDS011;69937;52.420;10.538;2023-12-14T03:58:45;11.73;;;10.77;;
80576;SDS011;69937;52.420;10.538;2023-12-14T04:03:46;11.02;;;10.10;;
80576;SDS011;69937;52.420;10.538;2023-12-14T04:08:46;11.15;;;10.32;;
80576;SDS011;69937;52.420;10.538;2023-12-14T04:13:47;12.15;;;11.20;;
80576;SDS011;69937;52.420;10.538;2023-12-14T04:18:50;11.00;;;10.00;;
80576;SDS011;69937;52.420;10.538;2023-12-14T04:23:51;12.23;;;11.32;;
80576;SDS011;69937;52.420;10.538;2023-12-14T04:28:51;15.73;;;11.20;;
80576;SDS011;69937;52.420;10.538;2023-12-14T04:33:52;14.00;;;11.13;;
80576;SDS011;69937;52.420;10.538;2023-12-14T04:38:52;10.95;;;10.05;;
80576;SDS011;69937;52.420;10.538;2023-12-14T04:43:53;12.68;;;11.57;;
80576;SDS011;69937;52.420;10.538;2023-12-14T04:48:54;13.98;;;12.60;;
80576;SDS011;69937;52.420;10.538;2023-12-14T04:53:55;13.30;;;12.10;;
80576;SDS011;69937;52.420;10.538;2023-12-14T04:58:55;12.82;;;11.75;;
80576;SDS011;69937;52.420;10.538;2023-12-14T05:03:56;13.90;;;12.55;;
80576;SDS011;69937;52.420;10.538;2023-12-14T05:08:56;10.68;;;9.88;;
80576;SDS011;69937;52.420;10.538;2023-12-14T05:13:58;12.20;;;11.13;;
80576;SDS011;69937;52.420;10.538;2023-12-14T05:18:59;12.23;;;11.18;;
80576;SDS011;69937;52.420;10.538;2023-12-14T05:23:59;12.80;;;11.70;;
80576;SDS011;69937;52.420;10.538;2023-12-14T05:29:00;8.20;;;7.18;;
80576;SDS011;69937;52.420;10.538;2023-12-14T05:34:00;11.52;;;10.63;;
80576;SDS011;69937;52.420;10.538;2023-12-14T05:39:02;12.10;;;11.02;;
80576;SDS011;69937;52.420;10.538;2023-12-14T05:44:03;11.50;;;10.68;;
80576;SDS011;69937;52.420;10.538;2023-12-14T05:49:04;12.90;;;11.90;;
80576;SDS011;69937;52.420;10.538;2023-12-14T05:54:04;11.48;;;10.57;;
80576;SDS011;69937;52.420;10.538;2023-12-14T05:59:05;12.52;;;11.65;;
80576;SDS011;69937;52.420;10.538;2023-12-14T06:04:05;12.77;;;11.77;;
80576;SDS011;69937;52.420;10.538;2023-12-14T06:09:06;12.68;;;11.70;;
80576;SDS011;69937;52.420;10.538;2023-12-14T06:14:07;7.53;;;6.93;;
80576;SDS011;69937;52.420;10.538;2023-12-14T06:19:07;8.70;;;7.65;;
80576;SDS011;69937;52.420;10.538;2023-12-14T06:24:08;13.05;;;11.60;;
80576;SDS011;69937;52.420;10.538;2023-12-14T06:29:12;15.02;;;13.52;;
80576;SDS011;69937;52.420;10.538;2023-12-14T06:34:12;12.60;;;11.50;;
80576;SDS011;69937;52.420;10.538;2023-12-14T06:39:13;12.20;;;11.20;;
80576;SDS011;69937;52.420;10.538;2023-12-14T06:44:14;11.68;;;10.75;;
80576;SDS011;69937;52.420;10.538;2023-12-14T06:49:14;7.60;;;6.88;;
80576;SDS011;69937;52.420;10.538;2023-12-14T06:54:15;12.43;;;11.30;;
80576;SDS011;69937;52.420;10.538;2023-12-14T06:59:15;14.65;;;7.82;;
80576;SDS011;69937;52.420;10.538;2023-12-14T07:04:16;11.57;;;10.73;;
80576;SDS011;69937;52.420;10.538;2023-12-14T07:09:16;10.77;;;10.07;;
80576;SDS011;69937;52.420;10.538;2023-12-14T07:14:17;12.40;;;11.50;;
80576;SDS011;69937;52.420;10.538;2023-12-14T07:19:18;7.75;;;7.10;;
80576;SDS011;69937;52.420;10.538;2023-12-14T07:24:18;7.35;;;6.75;;
80576;SDS011;69937;52.420;10.538;2023-12-14T07:29:19;12.02;;;10.93;;
80576;SDS011;69937;52.420;10.538;2023-12-14T07:34:20;10.45;;;9.55;;
80576;SDS011;69937;52.420;10.538;2023-12-14T07:39:20;11.73;;;10.80;;
80576;SDS011;69937;52.420;10.538;2023-12-14T07:44:21;12.45;;;11.38;;
80576;SDS011;69937;52.420;10.538;2023-12-14T07:49:22;11.82;;;10.73;;
80576;SDS011;69937;52.420;10.538;2023-12-14T07:54:23;10.45;;;9.70;;
80576;SDS011;69937;52.420;10.538;2023-12-14T07:59:26;11.07;;;10.18;;
80576;SDS011;69937;52.420;10.538;2023-12-14T08:04:27;11.73;;;10.68;;
80576;SDS011;69937;52.420;10.538;2023-12-14T08:09:27;10.18;;;9.27;;
80576;SDS011;69937;52.420;10.538;2023-12-14T08:14:28;11.93;;;10.82;;
80576;SDS011;69937;52.420;10.538;2023-12-14T08:19:28;12.02;;;10.90;;
80576;SDS011;69937;52.420;10.538;2023-12-14T08:24:29;11.95;;;10.82;;
80576;SDS011;69937;52.420;10.538;2023-12-14T08:29:30;12.05;;;11.05;;
80576;SDS011;69937;52.420;10.538;2023-12-14T08:34:30;10.70;;;9.80;;
80576;SDS011;69937;52.420;10.538;2023-12-14T08:39:31;10.85;;;10.00;;
80576;SDS011;69937;52.420;10.538;2023-12-14T08:44:31;12.88;;;11.65;;
80576;SDS011;69937;52.420;10.538;2023-12-14T08:49:32;9.98;;;9.27;;
80576;SDS011;69937;52.420;10.538;2023-12-14T08:54:33;10.75;;;9.85;;
80576;SDS011;69937;52.420;10.538;2023-12-14T08:59:33;9.43;;;8.73;;
80576;SDS011;69937;52.420;10.538;2023-12-14T09:04:34;10.10;;;6.70;;
80576;SDS011;69937;52.420;10.538;2023-12-14T09:09:35;7.50;;;6.90;;
80576;SDS011;69937;52.420;10.538;2023-12-14T09:14:36;9.98;;;9.27;;
80576;SDS011;69937;52.420;10.538;2023-12-14T09:19:36;10.13;;;9.35;;
80576;SDS011;69937;52.420;10.538;2023-12-14T09:24:37;10.63;;;9.70;;
80576;SDS011;69937;52.420;10.538;2023-12-14T09:29:37;5.97;;;5.47;;
80576;SDS011;69937;52.420;10.538;2023-12-14T09:34:38;10.35;;;9.68;;
80576;SDS011;69937;52.420;10.538;2023-12-14T09:39:38;11.05;;;10.15;;
80576;SDS011;69937;52.420;10.538;2023-12-14T09:44:39;10.80;;;10.02;;
80576;SDS011;69937;52.420;10.538;2023-12-14T09:49:41;10.73;;;9.90;;
80576;SDS011;69937;52.420;10.538;2023-12-14T09:54:45;9.43;;;8.73;;
80576;SDS011;69937;52.420;10.538;2023-12-14T09:59:55;10.75;;;10.05;;
80576;SDS011;69937;52.420;10.538;2023-12-14T10:04:56;11.25;;;9.77;;
80576;SDS011;69937;52.420;10.538;2023-12-14T10:10:10;11.20;;;10.43;;
80576;SDS011;69937;52.420;10.538;2023-12-14T10:15:13;6.85;;;6.22;;
80576;SDS011;69937;52.420;10.538;2023-12-14T10:20:14;10.05;;;9.32;;
80576;SDS011;69937;52.420;10.538;2023-12-14T10:25:21;7.07;;;6.40;;
80576;SDS011;69937;52.420;10.538;2023-12-14T10:30:22;10.48;;;9.55;;
80576;SDS011;69937;52.420;10.538;2023-12-14T10:35:23;10.82;;;10.07;;
80576;SDS011;69937;52.420;10.538;2023-12-14T10:40:23;11.20;;;10.38;;
80576;SDS011;69937;52.420;10.538;2023-12-14T10:45:31;7.85;;;7.15;;
80576;SDS011;69937;52.420;10.538;2023-12-14T10:50:33;11.68;;;10.77;;
80576;SDS011;69937;52.420;10.538;2023-12-14T10:55:38;11.38;;;10.35;;
80576;SDS011;69937;52.420;10.538;2023-12-14T11:00:42;11.55;;;6.32;;
80576;SDS011;69937;52.420;10.538;2023-12-14T11:05:43;11.30;;;10.40;;
80576;SDS011;69937;52.420;10.538;2023-12-14T11:10:52;8.75;;;7.03;;
80576;SDS011;69937;52.420;10.538;2023-12-14T11:15:57;10.38;;;9.52;;
80576;SDS011;69937;52.420;10.538;2023-12-14T11:20:58;12.00;;;11.00;;
80576;SDS011;69937;52.420;10.538;2023-12-14T11:26:02;10.85;;;9.85;;
80576;SDS011;69937;52.420;10.538;2023-12-14T11:31:11;12.13;;;10.98;;
80576;SDS011;69937;52.420;10.538;2023-12-14T11:36:12;12.55;;;11.40;;
80576;SDS011;69937;52.420;10.538;2023-12-14T11:41:13;14.23;;;10.50;;
80576;SDS011;69937;52.420;10.538;2023-12-14T11:46:14;11.30;;;10.20;;
80576;SDS011;69937;52.420;10.538;2023-12-14T11:51:15;12.45;;;11.35;;
80576;SDS011;69937;52.420;10.538;2023-12-14T11:56:19;11.32;;;10.20;;
80576;SDS011;69937;52.420;10.538;2023-12-14T12:01:22;15.30;;;9.90;;
80576;SDS011;69937;52.420;10.538;2023-12-14T12:06:25;9.70;;;8.88;;
80576;SDS011;69937;52.420;10.538;2023-12-14T12:11:30;11.50;;;10.57;;
80576;SDS011;69937;52.420;10.538;2023-12-14T12:16:30;10.48;;;9.32;;
80576;SDS011;69937;52.420;10.538;2023-12-14T12:21:31;10.43;;;9.52;;
80576;SDS011;69937;52.420;10.538;2023-12-14T12:26:32;11.75;;;10.85;;
80576;SDS011;69937;52.420;10.538;2023-12-14T12:31:32;9.50;;;8.70;;
80576;SDS011;69937;52.420;10.538;2023-12-14T12:36:34;11.98;;;10.85;;
80576;SDS011;69937;52.420;10.538;2023-12-14T12:41:35;10.90;;;10.00;;
80576;SDS011;69937;52.420;10.538;2023-12-14T12:46:38;14.10;;;10.50;;
80576;SDS011;69937;52.420;10.538;2023-12-14T12:51:39;9.38;;;8.65;;
80576;SDS011;69937;52.420;10.538;2023-12-14T12:56:39;11.13;;;10.23;;
80576;SDS011;69937;52.420;10.538;2023-12-14T13:01:40;11.38;;;10.18;;
80576;SDS011;69937;52.420;10.538;2023-12-14T13:06:40;10.40;;;9.38;;
80576;SDS011;69937;52.420;10.538;2023-12-14T13:11:41;9.77;;;8.82;;
80576;SDS011;69937;52.420;10.538;2023-12-14T13:16:42;12.00;;;10.00;;
80576;SDS011;69937;52.420;10.538;2023-12-14T13:21:43;11.27;;;10.38;;
80576;SDS011;69937;52.420;10.538;2023-12-14T13:26:44;13.02;;;11.50;;
80576;SDS011;69937;52.420;10.538;2023-12-14T13:31:44;11.50;;;10.30;;
80576;SDS011;69937;52.420;10.538;2023-12-14T13:36:45;12.07;;;10.98;;
80576;SDS011;69937;52.420;10.538;2023-12-14T13:41:45;11.07;;;10.10;;
80576;SDS011;69937;52.420;10.538;2023-12-14T13:46:46;11.93;;;9.73;;
80576;SDS011;69937;52.420;10.538;2023-12-14T13:51:46;11.45;;;10.45;;
80576;SDS011;69937;52.420;10.538;2023-12-14T13:56:47;13.18;;;10.05;;
80576;SDS011;69937;52.420;10.538;2023-12-14T14:01:47;12.60;;;11.38;;
80576;SDS011;69937;52.420;10.538;2023-12-14T14:06:51;11.48;;;10.48;;
80576;SDS011;69937;52.420;10.538;2023-12-14T14:11:51;12.65;;;11.35;;
80576;SDS011;69937;52.420;10.538;2023-12-14T14:16:52;11.57;;;10.20;;
80576;SDS011;69937;52.420;10.538;2023-12-14T14:21:52;6.95;;;6.25;;
80576;SDS011;69937;52.420;10.538;2023-12-14T14:26:53;11.02;;;10.13;;
80576;SDS011;69937;52.420;10.538;2023-12-14T14:31:53;11.48;;;7.05;;
80576;SDS011;69937;52.420;10.538;2023-12-14T14:36:54;10.73;;;10.00;;
80576;SDS011;69937;52.420;10.538;2023-12-14T14:41:54;11.60;;;10.57;;
80576;SDS011;69937;52.420;10.538;2023-12-14T14:46:55;9.52;;;7.53;;
80576;SDS011;69937;52.420;10.538;2023-12-14T14:51:56;11.40;;;10.00;;
80576;SDS011;69937;52.420;10.538;2023-12-14T14:56:56;10.43;;;9.45;;
80576;SDS011;69937;52.420;10.538;2023-12-14T15:01:57;12.00;;;9.63;;
80576;SDS011;69937;52.420;10.538;2023-12-14T15:07:00;12.43;;;11.52;;
80576;SDS011;69937;52.420;10.538;2023-12-14T15:12:02;11.43;;;10.57;;
80576;SDS011;69937;52.420;10.538;2023-12-14T15:17:03;11.57;;;10.57;;
80576;SDS011;69937;52.420;10.538;2023-12-14T15:22:03;10.13;;;9.35;;
80576;SDS011;69937;52.420;10.538;2023-12-14T15:27:04;10.60;;;9.60;;
80576;SDS011;69937;52.420;10.538;2023-12-14T15:32:05;11.95;;;11.07;;
80576;SDS011;69937;52.420;10.538;2023-12-14T15:37:05;13.20;;;10.50;;
80576;SDS011;69937;52.420;10.538;2023-12-14T15:42:06;10.95;;;9.85;;
80576;SDS011;69937;52.420;10.538;2023-12-14T15:47:06;10.25;;;9.25;;
80576;SDS011;69937;52.420;10.538;2023-12-14T15:52:07;10.93;;;10.02;;
80576;SDS011;69937;52.420;10.538;2023-12-14T15:57:08;15.00;;;10.88;;
80576;SDS011;69937;52.420;10.538;2023-12-14T16:02:08;11.27;;;10.30;;
80576;SDS011;69937;52.420;10.538;2023-12-14T16:07:09;12.57;;;10.35;;
80576;SDS011;69937;52.420;10.538;2023-12-14T16:12:10;13.20;;;11.93;;
80576;SDS011;69937;52.420;10.538;2023-12-14T16:17:10;12.27;;;11.10;;
80576;SDS011;69937;52.420;10.538;2023-12-14T16:22:11;11.98;;;10.52;;
80576;SDS011;69937;52.420;10.538;2023-12-14T16:27:11;10.85;;;10.05;;
80576;SDS011;69937;52.420;10.538;2023-12-14T16:32:12;11.95;;;10.88;;
80576;SDS011;69937;52.420;10.538;2023-12-14T16:37:13;9.45;;;8.55;;
80576;SDS011;69937;52.420;10.538;2023-12-14T16:42:14;11.23;;;10.13;;
80576;SDS011;69937;52.420;10.538;2023-12-14T16:47:14;12.43;;;11.32;;
80576;SDS011;69937;52.420;10.538;2023-12-14T16:52:15;12.27;;;11.10;;
80576;SDS011;69937;52.420;10.538;2023-12-14T16:57:18;10.30;;;9.23;;
80576;SDS011;69937;52.420;10.538;2023-12-14T17:02:18;8.80;;;7.60;;
80576;SDS011;69937;52.420;10.538;2023-12-14T17:07:19;12.73;;;10.45;;
80576;SDS011;69937;52.420;10.538;2023-12-14T17:12:20;12.65;;;11.48;;
80576;SDS011;69937;52.420;10.538;2023-12-14T17:17:21;11.70;;;10.63;;
80576;SDS011;69937;52.420;10.538;2023-12-14T17:22:23;8.68;;;6.80;;
80576;SDS011;69937;52.420;10.538;2023-12-14T17:27:24;7.82;;;7.13;;
80576;SDS011;69937;52.420;10.538;2023-12-14T17:32:26;13.20;;;11.93;;
80576;SDS011;69937;52.420;10.538;2023-12-14T17:37:26;11.57;;;10.48;;
80576;SDS011;69937;52.420;10.538;2023-12-14T17:42:27;12.00;;;7.80;;
80576;SDS011;69937;52.420;10.538;2023-12-14T17:47:27;11.35;;;10.35;;
80576;SDS011;69937;52.420;10.538;2023-12-14T17:52:28;12.55;;;11.35;;
80576;SDS011;69937;52.420;10.538;2023-12-14T17:57:29;12.43;;;11.23;;
80576;SDS011;69937;52.420;10.538;2023-12-14T18:02:29;12.98;;;11.05;;
80576;SDS011;69937;52.420;10.538;2023-12-14T18:07:30;8.85;;;7.35;;
80576;SDS011;69937;52.420;10.538;2023-12-14T18:12:30;14.43;;;13.23;;
80576;SDS011;69937;52.420;10.538;2023-12-14T18:17:31;12.93;;;8.88;;
80576;SDS011;69937;52.420;10.538;2023-12-14T18:22:31;17.35;;;13.38;;
80576;SDS011;69937;52.420;10.538;2023-12-14T18:27:32;13.27;;;11.98;;
80576;SDS011;69937;52.420;10.538;2023-12-14T18:32:32;16.17;;;13.07;;
80576;SDS011;69937;52.420;10.538;2023-12-14T18:37:33;14.48;;;12.98;;
80576;SDS011;69937;52.420;10.538;2023-12-14T18:42:33;13.60;;;12.40;;
80576;SDS011;69937;52.420;10.538;2023-12-14T18:47:34;14.07;;;12.75;;
80576;SDS011;69937;52.420;10.538;2023-12-14T18:52:34;13.68;;;12.57;;
80576;SDS011;69937;52.420;10.538;2023-12-14T18:57:35;13.15;;;12.18;;
80576;SDS011;69937;52.420;10.538;2023-12-14T19:02:36;14.45;;;13.05;;
80576;SDS011;69937;52.420;10.538;2023-12-14T19:07:38;14.10;;;12.60;;
80576;SDS011;69937;52.420;10.538;2023-12-14T19:12:39;12.82;;;11.75;;
80576;SDS011;69937;52.420;10.538;2023-12-14T19:17:39;12.20;;;11.07;;
80576;SDS011;69937;52.420;10.538;2023-12-14T19:22:40;14.35;;;13.13;;
80576;SDS011;69937;52.420;10.538;2023-12-14T19:27:40;13.43;;;12.20;;
80576;SDS011;69937;52.420;10.538;2023-12-14T19:32:41;12.63;;;11.57;;
80576;SDS011;69937;52.420;10.538;2023-12-14T19:37:41;14.30;;;12.85;;
80576;SDS011;69937;52.420;10.538;2023-12-14T19:42:43;12.60;;;11.40;;
80576;SDS011;69937;52.420;10.538;2023-12-14T19:47:43;13.27;;;11.93;;
80576;SDS011;69937;52.420;10.538;2023-12-14T19:52:44;15.13;;;13.82;;
80576;SDS011;69937;52.420;10.538;2023-12-14T19:57:44;12.55;;;11.35;;
80576;SDS011;69937;52.420;10.538;2023-12-14T20:02:49;13.52;;;12.40;;
80576;SDS011;69937;52.420;10.538;2023-12-14T20:07:50;10.40;;;8.98;;
80576;SDS011;69937;52.420;10.538;2023-12-14T20:12:50;14.75;;;13.25;;
80576;SDS011;69937;52.420;10.538;2023-12-14T20:17:53;16.55;;;14.80;;
80576;SDS011;69937;52.420;10.538;2023-12-14T20:22:53;16.25;;;14.32;;
80576;SDS011;69937;52.420;10.538;2023-12-14T20:27:54;15.13;;;12.90;;
80576;SDS011;69937;52.420;10.538;2023-12-14T20:32:55;16.15;;;14.25;;
80576;SDS011;69937;52.420;10.538;2023-12-14T20:37:55;13.45;;;12.02;;
80576;SDS011;69937;52.420;10.538;2023-12-14T20:42:56;14.80;;;13.27;;
80576;SDS011;69937;52.420;10.538;2023-12-14T20:47:56;14.27;;;12.75;;
80576;SDS011;69937;52.420;10.538;2023-12-14T20:52:57;13.45;;;12.18;;
80576;SDS011;69937;52.420;10.538;2023-12-14T20:57:57;14.57;;;13.27;;
80576;SDS011;69937;52.420;10.538;2023-12-14T21:02:58;14.20;;;13.05;;
80576;SDS011;69937;52.420;10.538;2023-12-14T21:07:59;15.82;;;13.95;;
80576;SDS011;69937;52.420;10.538;2023-12-14T21:12:59;13.23;;;12.02;;
80576;SDS011;69937;52.420;10.538;2023-12-14T21:18:00;14.05;;;12.50;;
80576;SDS011;69937;52.420;10.538;2023-12-14T21:23:01;18.50;;;14.00;;
80576;SDS011;69937;52.420;10.538;2023-12-14T21:28:01;15.10;;;13.63;;
80576;SDS011;69937;52.420;10.538;2023-12-14T21:33:03;14.02;;;12.85;;
80576;SDS011;69937;52.420;10.538;2023-12-14T21:38:03;17.52;;;15.85;;
80576;SDS011;69937;52.420;10.538;2023-12-14T21:43:04;19.52;;;16.83;;
80576;SDS011;69937;52.420;10.538;2023-12-14T21:48:04;16.17;;;14.57;;
80576;SDS011;69937;52.420;10.538;2023-12-14T21:53:05;16.15;;;14.55;;
80576;SDS011;69937;52.420;10.538;2023-12-14T21:58:06;14.07;;;12.77;;
80576;SDS011;69937;52.420;10.538;2023-12-14T22:03:06;13.93;;;12.57;;
80576;SDS011;69937;52.420;10.538;2023-12-14T22:08:07;14.85;;;13.35;;
80576;SDS011;69937;52.420;10.538;2023-12-14T22:13:07;14.88;;;13.27;;
80576;SDS011;69937;52.420;10.538;2023-12-14T22:18:09;14.65;;;13.32;;
80576;SDS011;69937;52.420;10.538;2023-12-14T22:23:09;13.60;;;12.30;;
80576;SDS011;69937;52.420;10.538;2023-12-14T22:28:10;15.98;;;14.57;;
80576;SDS011;69937;52.420;10.538;2023-12-14T22:33:12;17.60;;;15.80;;
80576;SDS011;69937;52.420;10.538;2023-12-14T22:38:12;17.25;;;15.48;;
80576;SDS011;69937;52.420;10.538;2023-12-14T22:43:13;16.85;;;15.27;;
80576;SDS011;69937;52.420;10.538;2023-12-14T22:48:13;16.90;;;14.00;;
80576;SDS011;69937;52.420;10.538;2023-12-14T22:53:14;24.92;;;21.38;;
80576;SDS011;69937;52.420;10.538;2023-12-14T22:58:14;19.23;;;16.90;;
80576;SDS011;69937;52.420;10.538;2023-12-14T23:03:15;17.63;;;15.32;;
80576;SDS011;69937;52.420;10.538;2023-12-14T23:08:15;17.83;;;15.98;;
80576;SDS011;69937;52.420;10.538;2023-12-14T23:13:17;16.88;;;12.73;;
80576;SDS011;69937;52.420;10.538;2023-12-14T23:18:17;18.73;;;16.92;;
80576;SDS011;69937;52.420;10.538;2023-12-14T23:23:18;17.90;;;16.02;;
80576;SDS011;69937;52.420;10.538;2023-12-14T23:28:18;19.27;;;17.33;;
80576;SDS011;69937;52.420;10.538;2023-12-14T23:33:23;18.60;;;15.18;;
80576;SDS011;69937;52.420;10.538;2023-12-14T23:38:23;16.92;;;15.48;;
80576;SDS011;69937;52.420;10.538;2023-12-14T23:43:24;18.17;;;15.55;;
80576;SDS011;69937;52.420;10.538;2023-12-14T23:48:24;16.85;;;13.88;;
80576;SDS011;69937;52.420;10.538;2023-12-14T23:53:25;17.00;;;15.45;;
80576;SDS011;69937;52.420;10.538;2023-12-14T23:58:25;17.65;;;16.02;;
